Burgdorf, Idaho
Current Conditions -  °F | °C
As of 5:51 PM on Saturday 25 Oct 2014 (Local Time) from KMYL Reporting Station
Broken Clouds Broken Clouds  
Wind Chill: 58°   Ceiling: 8500
Heat Index: 58°   Visibility: 10mi
Dew Point: 31°   Wind: 18mph
Humidity: 36%   Direction: 200°SSW
Pressure: 29.81"   Gusts: 31mph
Location:  44.8627°N, 115.492°W
Report Text: KMYL 252351Z AUTO 20016G27KT 10SM FEW070 BKN085 14/M01 A2981 RMK AO2 PK WND 17033/2313 RAB01E37 PRESRR SLP085 P0000 60000 T01441006 10161 20056 55000
Loading
Personal Weather Stations






























Interactive Weather Map
Tropical Storm Tracking
New forecast layout! Learn more

10-Day Weather Forecast

Advertisements
Track Severe Weather on mobile